Time;durP1;ratioP1;P1;durP2;ratioP2;P2;SDS_P1;SDS_P2;PMS_P1;PMS_P2;Temp;Humidity;BMP_temperature;BMP_pressure;BME280_temperature;BME280_humidity;BME280_pressure;Samples;Min_cycle;Max_cycle;Signal;HPM_P1;HPM_P2
2023/12/08 00:00:20;;;;;;;9.23;7.10;;;8.50;58.10;;;;;;5092927;28;20817;-63
2023/12/08 00:02:47;;;;;;;8.97;7.60;;;8.60;58.60;;;;;;5085141;28;20475;-64
2023/12/08 00:05:16;;;;;;;9.13;7.00;;;8.60;58.80;;;;;;5076353;28;21061;-63
2023/12/08 00:07:43;;;;;;;9.17;7.07;;;8.60;59.00;;;;;;5084524;28;20821;-65
2023/12/08 00:10:14;;;;;;;9.30;6.83;;;8.60;59.20;;;;;;5094009;28;20450;-63
2023/12/08 00:12:40;;;;;;;7.37;6.43;;;8.60;59.10;;;;;;5093268;28;20451;-62
2023/12/08 00:15:09;;;;;;;9.63;7.27;;;8.60;59.40;;;;;;5106280;28;20813;-64
2023/12/08 00:17:37;;;;;;;9.80;7.50;;;8.50;59.40;;;;;;5098900;28;20920;-63
2023/12/08 00:20:06;;;;;;;7.87;6.40;;;8.50;59.70;;;;;;5039341;28;20457;-63
2023/12/08 00:22:34;;;;;;;9.43;7.03;;;8.40;59.90;;;;;;5078029;28;20467;-64
2023/12/08 00:25:01;;;;;;;9.33;7.47;;;8.50;60.40;;;;;;5085305;28;20453;-63
2023/12/08 00:27:29;;;;;;;12.53;9.53;;;8.40;60.80;;;;;;5090093;28;20466;-64
2023/12/08 00:29:56;;;;;;;11.37;8.03;;;8.40;61.40;;;;;;5091873;28;20444;-64
2023/12/08 00:32:24;;;;;;;9.70;8.10;;;8.40;61.50;;;;;;5075496;28;20558;-62
2023/12/08 00:34:51;;;;;;;11.53;9.13;;;8.40;61.70;;;;;;5098503;28;20525;-64
2023/12/08 00:37:18;;;;;;;11.87;9.27;;;8.40;61.60;;;;;;5092895;28;20790;-64
2023/12/08 00:39:46;;;;;;;11.03;9.07;;;8.50;62.00;;;;;;5074028;28;20463;-64
2023/12/08 00:42:13;;;;;;;15.53;9.13;;;8.50;62.20;;;;;;5074173;28;20452;-63
2023/12/08 00:44:39;;;;;;;10.63;7.87;;;8.50;62.50;;;;;;5090788;28;20984;-64
2023/12/08 00:47:06;;;;;;;9.53;7.77;;;8.50;62.50;;;;;;5092050;28;20484;-64
2023/12/08 00:49:33;;;;;;;10.40;7.10;;;8.30;62.60;;;;;;5090606;28;20438;-64
2023/12/08 00:52:00;;;;;;;9.23;7.60;;;8.30;62.90;;;;;;5093116;28;20484;-62
2023/12/08 00:54:27;;;;;;;10.70;8.57;;;8.30;63.00;;;;;;5077252;28;20439;-64
2023/12/08 00:56:55;;;;;;;11.67;8.43;;;8.30;63.10;;;;;;5073900;28;20450;-64
2023/12/08 00:59:22;;;;;;;12.10;8.57;;;8.20;63.40;;;;;;5083658;28;20451;-64
2023/12/08 01:01:50;;;;;;;9.37;7.33;;;8.30;63.70;;;;;;5080150;28;20947;-64
2023/12/08 01:04:17;;;;;;;8.77;7.77;;;8.30;63.60;;;;;;5097358;28;20471;-63
2023/12/08 01:06:44;;;;;;;10.03;7.43;;;8.40;63.60;;;;;;5072457;28;20489;-63
2023/12/08 01:09:10;;;;;;;10.17;8.20;;;8.40;63.90;;;;;;5044066;28;20535;-63
2023/12/08 01:11:39;;;;;;;9.97;7.83;;;8.40;63.60;;;;;;5091890;28;20452;-63
2023/12/08 01:14:07;;;;;;;8.97;7.50;;;8.40;63.60;;;;;;5093393;28;20449;-64
2023/12/08 01:16:38;;;;;;;9.40;7.93;;;8.40;63.80;;;;;;5085818;28;20490;-64
2023/12/08 01:19:08;;;;;;;9.73;7.43;;;8.30;64.80;;;;;;5074024;28;20507;-64
2023/12/08 01:21:35;;;;;;;10.87;7.30;;;8.30;65.20;;;;;;5092354;28;20472;-63
2023/12/08 01:24:01;;;;;;;8.77;7.27;;;8.30;64.70;;;;;;5108236;28;20473;-64
2023/12/08 01:26:28;;;;;;;8.67;7.13;;;8.20;64.80;;;;;;5108893;28;20488;-63
2023/12/08 01:28:55;;;;;;;10.07;8.10;;;8.10;64.90;;;;;;5105194;28;20451;-62
2023/12/08 01:31:23;;;;;;;8.77;6.77;;;8.00;65.60;;;;;;5102356;28;20443;-64
2023/12/08 01:33:50;;;;;;;9.70;7.97;;;7.70;66.20;;;;;;5090293;28;20487;-64
2023/12/08 01:36:17;;;;;;;9.37;6.63;;;7.60;67.00;;;;;;5095609;28;20523;-63
2023/12/08 01:38:45;;;;;;;12.20;8.50;;;7.60;67.60;;;;;;5110274;28;20469;-64
2023/12/08 01:41:13;;;;;;;14.67;10.13;;;7.60;67.60;;;;;;5108712;28;20923;-62
2023/12/08 01:43:40;;;;;;;9.73;8.13;;;7.50;68.20;;;;;;5092413;28;20489;-64
2023/12/08 01:46:08;;;;;;;12.00;8.63;;;7.30;68.80;;;;;;5084819;28;20496;-63
2023/12/08 01:48:36;;;;;;;11.77;9.10;;;7.20;69.40;;;;;;5077998;28;20526;-62
2023/12/08 01:51:04;;;;;;;9.20;7.97;;;7.20;70.20;;;;;;5090987;28;20438;-62
2023/12/08 01:53:31;;;;;;;12.67;9.23;;;7.20;70.50;;;;;;5091879;28;20446;-64
2023/12/08 01:55:59;;;;;;;11.63;9.53;;;7.20;70.70;;;;;;5092160;28;20447;-62
2023/12/08 01:58:27;;;;;;;12.70;9.03;;;7.20;70.80;;;;;;5092079;28;20470;-62
2023/12/08 02:00:54;;;;;;;13.23;10.07;;;7.10;71.00;;;;;;5080734;28;20538;-64
2023/12/08 02:03:23;;;;;;;14.23;9.47;;;7.20;71.50;;;;;;5077178;28;20444;-64
2023/12/08 02:05:52;;;;;;;13.93;10.57;;;7.20;71.50;;;;;;5083089;28;20987;-62
2023/12/08 02:08:19;;;;;;;13.07;10.50;;;7.30;71.50;;;;;;5072088;28;20453;-63
2023/12/08 02:10:46;;;;;;;12.33;10.20;;;7.30;71.60;;;;;;5087652;28;20466;-62
2023/12/08 02:13:16;;;;;;;15.20;11.13;;;7.40;71.90;;;;;;5080858;28;20449;-64
2023/12/08 02:15:44;;;;;;;15.27;11.10;;;7.50;71.80;;;;;;5088630;28;20449;-64
2023/12/08 02:18:14;;;;;;;16.50;11.20;;;7.60;71.80;;;;;;5091142;28;20465;-63
2023/12/08 02:20:41;;;;;;;16.53;11.37;;;7.60;71.90;;;;;;5081646;28;20542;-64
2023/12/08 02:23:09;;;;;;;14.00;11.13;;;7.60;71.80;;;;;;5072659;28;20478;-64
2023/12/08 02:25:37;;;;;;;17.57;12.23;;;7.70;72.10;;;;;;5080158;28;20450;-64
2023/12/08 02:28:05;;;;;;;17.97;12.10;;;7.70;72.20;;;;;;5073076;28;20443;-63
2023/12/08 02:30:33;;;;;;;16.50;12.00;;;7.70;72.50;;;;;;5085547;28;20471;-64
2023/12/08 02:33:07;;;;;;;15.97;12.50;;;7.70;72.80;;;;;;5087449;28;20438;-64
2023/12/08 02:35:36;;;;;;;19.00;12.77;;;7.70;72.90;;;;;;5071785;28;20497;-64
2023/12/08 02:38:05;;;;;;;18.43;13.33;;;7.70;73.10;;;;;;5071612;28;21011;-64
2023/12/08 02:40:31;;;;;;;19.13;13.07;;;7.70;73.20;;;;;;5080933;28;20451;-64
2023/12/08 02:43:00;;;;;;;19.17;13.27;;;7.70;73.40;;;;;;5079770;28;20468;-64
2023/12/08 02:45:27;;;;;;;18.17;12.50;;;7.70;73.90;;;;;;5092173;28;20480;-64
2023/12/08 02:47:53;;;;;;;21.13;13.97;;;7.70;74.30;;;;;;5091695;28;20431;-64
2023/12/08 02:50:21;;;;;;;19.17;13.40;;;7.70;74.50;;;;;;5073759;28;20475;-64
2023/12/08 02:52:48;;;;;;;20.20;13.43;;;7.70;74.50;;;;;;5088558;28;20934;-63
2023/12/08 02:55:17;;;;;;;20.90;13.47;;;7.70;74.20;;;;;;5089930;28;20460;-63
2023/12/08 02:57:44;;;;;;;21.10;14.27;;;7.70;74.10;;;;;;5091866;28;20450;-64
2023/12/08 03:00:14;;;;;;;22.13;13.43;;;7.80;74.00;;;;;;5091541;28;20548;-64
2023/12/08 03:02:41;;;;;;;20.80;13.23;;;7.80;74.00;;;;;;5093422;28;20698;-63
2023/12/08 03:05:08;;;;;;;20.10;13.20;;;7.90;74.00;;;;;;5088668;28;20911;-64
2023/12/08 03:07:35;;;;;;;22.43;14.13;;;7.90;74.00;;;;;;5097253;28;20847;-64
2023/12/08 03:10:02;;;;;;;19.43;13.13;;;7.80;74.20;;;;;;5086814;28;20446;-64
2023/12/08 03:12:29;;;;;;;20.23;14.10;;;7.80;74.50;;;;;;5092793;28;20438;-63
2023/12/08 03:14:56;;;;;;;20.67;13.80;;;7.80;74.60;;;;;;5091765;28;20450;-63
2023/12/08 03:17:24;;;;;;;21.50;13.93;;;7.80;74.70;;;;;;5091828;28;20797;-63
2023/12/08 03:19:51;;;;;;;22.37;14.17;;;7.80;74.80;;;;;;5095550;28;20470;-63
2023/12/08 03:22:18;;;;;;;21.67;14.37;;;7.80;74.80;;;;;;5089364;28;20442;-63
2023/12/08 03:24:45;;;;;;;21.43;13.83;;;7.80;75.00;;;;;;5085162;28;20896;-61
2023/12/08 03:27:12;;;;;;;23.10;14.40;;;7.70;75.10;;;;;;5089413;28;20948;-64
2023/12/08 03:29:40;;;;;;;25.10;16.03;;;7.70;75.40;;;;;;5090590;28;20445;-64
2023/12/08 03:32:07;;;;;;;26.13;15.93;;;7.60;76.30;;;;;;5084534;28;20486;-64
2023/12/08 03:34:36;;;;;;;26.07;15.90;;;7.70;75.60;;;;;;5075772;28;20443;-64
2023/12/08 03:37:03;;;;;;;25.23;16.43;;;7.70;75.70;;;;;;5090389;28;20456;-63
2023/12/08 03:39:30;;;;;;;23.80;15.83;;;7.70;75.60;;;;;;5075033;28;20448;-64
2023/12/08 03:41:57;;;;;;;25.57;15.97;;;7.70;75.70;;;;;;5090008;28;20516;-64
2023/12/08 03:44:23;;;;;;;24.20;15.23;;;7.70;75.80;;;;;;5092935;28;20470;-64
2023/12/08 03:46:50;;;;;;;26.73;16.20;;;7.70;75.80;;;;;;5094504;28;20489;-64
2023/12/08 03:49:17;;;;;;;21.30;15.83;;;7.80;75.90;;;;;;5078770;28;20472;-64
2023/12/08 03:51:45;;;;;;;23.57;14.70;;;7.70;75.80;;;;;;5073900;28;20451;-63
2023/12/08 03:54:12;;;;;;;21.70;14.10;;;7.70;75.90;;;;;;5083242;28;20470;-63
2023/12/08 03:56:39;;;;;;;24.53;15.13;;;7.60;76.20;;;;;;5087111;28;20964;-62
2023/12/08 03:59:06;;;;;;;25.17;14.80;;;7.60;77.20;;;;;;5077731;28;20450;-64
2023/12/08 04:01:32;;;;;;;21.03;13.50;;;7.50;76.80;;;;;;5049756;28;20446;-64
2023/12/08 04:03:59;;;;;;;21.17;13.77;;;7.60;76.90;;;;;;5092292;28;20957;-64
2023/12/08 04:06:26;;;;;;;20.73;13.37;;;7.50;76.90;;;;;;5077223;28;20487;-63
2023/12/08 04:08:54;;;;;;;18.47;13.47;;;7.50;76.90;;;;;;5074952;28;20468;-63
2023/12/08 04:11:22;;;;;;;18.20;12.47;;;7.50;77.00;;;;;;5085764;28;20435;-62
2023/12/08 04:13:50;;;;;;;18.73;12.47;;;7.50;77.10;;;;;;5094066;28;20449;-61
2023/12/08 04:16:17;;;;;;;18.20;12.43;;;7.50;77.00;;;;;;5077600;28;20938;-62
2023/12/08 04:18:43;;;;;;;18.47;12.77;;;7.50;77.00;;;;;;5091664;28;20438;-64
2023/12/08 04:21:16;;;;;;;18.33;12.20;;;7.50;77.50;;;;;;5079292;28;20470;-64
2023/12/08 04:23:43;;;;;;;17.43;12.73;;;7.50;77.40;;;;;;5092905;28;20450;-64
2023/12/08 04:26:11;;;;;;;18.40;12.87;;;7.60;77.50;;;;;;5093625;28;20453;-64
2023/12/08 04:28:39;;;;;;;17.83;11.87;;;7.60;77.50;;;;;;5108291;28;20465;-63
2023/12/08 04:31:06;;;;;;;20.10;13.07;;;7.70;77.60;;;;;;5083018;28;20455;-63
2023/12/08 04:33:33;;;;;;;18.50;12.17;;;7.60;77.20;;;;;;5092115;28;20462;-64
2023/12/08 04:36:00;;;;;;;17.43;12.23;;;7.70;77.20;;;;;;5093566;28;20442;-64
2023/12/08 04:38:27;;;;;;;18.20;12.00;;;7.70;77.10;;;;;;5081004;28;20443;-63
2023/12/08 04:40:54;;;;;;;17.17;11.83;;;7.80;77.20;;;;;;5086548;28;20449;-63
2023/12/08 04:43:22;;;;;;;17.30;11.80;;;7.80;77.10;;;;;;5093262;28;20442;-63
2023/12/08 04:45:48;;;;;;;16.27;12.17;;;7.80;77.30;;;;;;5092971;28;20824;-63
2023/12/08 04:48:15;;;;;;;16.20;12.30;;;7.90;77.80;;;;;;5089062;28;20518;-65
2023/12/08 04:50:42;;;;;;;16.17;11.40;;;7.90;77.80;;;;;;5093440;28;20454;-64
2023/12/08 04:53:09;;;;;;;18.23;12.53;;;7.90;77.60;;;;;;5091632;28;20496;-64
2023/12/08 04:55:36;;;;;;;16.63;11.77;;;7.90;77.50;;;;;;5084621;28;21000;-64
2023/12/08 04:58:03;;;;;;;15.90;11.40;;;7.90;77.50;;;;;;5084835;28;20432;-65
2023/12/08 05:00:32;;;;;;;17.47;11.43;;;7.90;77.50;;;;;;5087018;28;20807;-64
2023/12/08 05:02:59;;;;;;;16.03;11.60;;;7.90;77.50;;;;;;5072980;28;20895;-63
2023/12/08 05:05:27;;;;;;;16.87;11.83;;;7.90;77.50;;;;;;5088058;28;20561;-64
2023/12/08 05:07:54;;;;;;;16.27;11.67;;;7.90;77.40;;;;;;5040555;28;20481;-64
2023/12/08 05:10:22;;;;;;;16.53;12.20;;;8.00;77.40;;;;;;5080181;28;20555;-64
2023/12/08 05:12:48;;;;;;;14.90;10.87;;;8.00;77.50;;;;;;5076763;28;20449;-63
2023/12/08 05:15:16;;;;;;;17.03;11.77;;;8.00;78.50;;;;;;5086570;28;20473;-64
2023/12/08 05:17:44;;;;;;;17.40;11.60;;;8.00;78.00;;;;;;5092053;28;20463;-64
2023/12/08 05:20:13;;;;;;;16.27;11.23;;;8.00;78.20;;;;;;5072250;28;20892;-63
2023/12/08 05:22:42;;;;;;;15.77;10.87;;;8.00;78.20;;;;;;5083089;28;20438;-64
2023/12/08 05:25:09;;;;;;;15.83;10.73;;;8.10;78.30;;;;;;5091126;28;20446;-63
2023/12/08 05:27:38;;;;;;;15.73;11.30;;;8.00;78.20;;;;;;5077319;28;20481;-62
2023/12/08 05:30:06;;;;;;;14.60;10.83;;;8.00;78.20;;;;;;5078622;28;20474;-64
2023/12/08 05:32:33;;;;;;;15.83;10.90;;;8.10;78.30;;;;;;5076273;28;20450;-64
2023/12/08 05:35:01;;;;;;;15.17;11.03;;;8.10;78.40;;;;;;5088207;28;20542;-63
2023/12/08 05:37:28;;;;;;;17.43;11.37;;;8.10;79.60;;;;;;5076090;28;20458;-64
2023/12/08 05:39:55;;;;;;;19.00;12.10;;;8.10;78.80;;;;;;5086490;28;20443;-64
2023/12/08 05:42:22;;;;;;;17.13;13.23;;;8.10;78.80;;;;;;5090898;28;20471;-63
2023/12/08 05:44:49;;;;;;;19.63;14.43;;;8.10;78.70;;;;;;5091981;28;20506;-65
2023/12/08 05:47:17;;;;;;;23.17;18.37;;;8.10;78.80;;;;;;5084772;28;20480;-65
2023/12/08 05:49:44;;;;;;;25.87;18.83;;;8.10;78.90;;;;;;5090773;28;20534;-64
2023/12/08 05:52:12;;;;;;;31.63;21.43;;;8.10;79.00;;;;;;5090749;28;21096;-64
2023/12/08 05:54:39;;;;;;;25.60;18.50;;;8.10;79.10;;;;;;5081230;28;20518;-64
2023/12/08 05:57:06;;;;;;;21.27;14.30;;;8.10;79.20;;;;;;5080416;28;20454;-65
2023/12/08 05:59:33;;;;;;;17.30;12.23;;;8.10;79.40;;;;;;5072861;28;20572;-64
2023/12/08 06:01:59;;;;;;;20.20;13.33;;;8.10;79.50;;;;;;5076239;28;20439;-64
2023/12/08 06:04:26;;;;;;;15.50;11.73;;;8.10;79.40;;;;;;5080635;28;20451;-63
2023/12/08 06:06:53;;;;;;;15.47;11.20;;;8.10;79.20;;;;;;5089977;28;20510;-64
2023/12/08 06:09:21;;;;;;;16.17;11.17;;;8.10;79.40;;;;;;5092126;28;20533;-64
2023/12/08 06:11:48;;;;;;;14.87;10.70;;;8.10;79.40;;;;;;5090794;28;20842;-63
2023/12/08 06:14:15;;;;;;;14.10;10.43;;;8.10;79.40;;;;;;5085253;28;20497;-64
2023/12/08 06:16:43;;;;;;;21.97;11.20;;;8.10;79.50;;;;;;5072434;28;20439;-64
2023/12/08 06:19:11;;;;;;;15.90;11.37;;;8.10;79.50;;;;;;5074281;28;20455;-63
2023/12/08 06:21:38;;;;;;;15.57;11.33;;;8.00;79.40;;;;;;5086071;28;20827;-65
2023/12/08 06:24:05;;;;;;;16.27;11.30;;;8.10;80.00;;;;;;5080542;28;20448;-64
2023/12/08 06:26:33;;;;;;;13.67;10.40;;;8.00;79.70;;;;;;5080666;28;20438;-64
2023/12/08 06:29:00;;;;;;;15.53;11.40;;;8.00;80.00;;;;;;5028491;28;20643;-64
2023/12/08 06:31:27;;;;;;;16.77;12.43;;;8.00;80.20;;;;;;5082394;28;20439;-65
2023/12/08 06:33:54;;;;;;;17.13;12.33;;;8.00;80.20;;;;;;5081657;28;20875;-64
2023/12/08 06:36:21;;;;;;;18.93;13.00;;;8.10;80.40;;;;;;5091787;28;20466;-65
2023/12/08 06:38:48;;;;;;;16.90;12.50;;;8.10;80.40;;;;;;5079685;28;20806;-64
2023/12/08 06:41:15;;;;;;;17.73;11.77;;;8.10;80.60;;;;;;5091173;28;20449;-64
2023/12/08 06:43:43;;;;;;;17.90;11.33;;;8.10;80.60;;;;;;5094904;28;20586;-65
2023/12/08 06:46:10;;;;;;;17.43;11.13;;;8.10;80.10;;;;;;5090751;28;20447;-65
2023/12/08 06:48:37;;;;;;;15.37;11.10;;;8.10;80.70;;;;;;5080319;28;20573;-66
2023/12/08 06:51:04;;;;;;;17.53;11.37;;;8.10;80.80;;;;;;5078606;28;20534;-65
2023/12/08 06:53:31;;;;;;;16.23;11.93;;;8.20;80.40;;;;;;5087603;28;20527;-64
2023/12/08 06:55:58;;;;;;;16.23;12.43;;;8.10;80.00;;;;;;5082733;28;20451;-64
2023/12/08 06:58:24;;;;;;;15.50;11.80;;;8.20;79.90;;;;;;5076260;28;20451;-63
2023/12/08 07:00:54;;;;;;;17.33;12.10;;;8.20;80.20;;;;;;5079699;28;20826;-65
2023/12/08 07:03:22;;;;;;;16.73;11.87;;;8.20;80.20;;;;;;5079190;28;20857;-64
2023/12/08 07:05:48;;;;;;;18.47;11.47;;;8.20;80.40;;;;;;5077585;28;20467;-63
2023/12/08 07:08:15;;;;;;;17.23;11.87;;;8.10;80.50;;;;;;5092304;28;20486;-64
2023/12/08 07:10:42;;;;;;;16.00;11.17;;;8.10;80.60;;;;;;5093954;28;20482;-64
2023/12/08 07:13:09;;;;;;;15.73;11.70;;;8.20;80.70;;;;;;5079389;28;20471;-64
2023/12/08 07:15:36;;;;;;;15.27;11.53;;;8.20;80.50;;;;;;5091090;28;20436;-67
2023/12/08 07:18:04;;;;;;;14.97;10.63;;;8.20;80.20;;;;;;5079076;28;20455;-63
2023/12/08 07:20:31;;;;;;;15.17;11.43;;;8.20;79.50;;;;;;5093728;28;20438;-64
2023/12/08 07:22:58;;;;;;;14.87;11.20;;;8.20;79.80;;;;;;5093412;28;20474;-63
2023/12/08 07:25:25;;;;;;;14.93;10.83;;;8.20;80.30;;;;;;5090738;28;20527;-64
2023/12/08 07:27:52;;;;;;;16.67;11.63;;;8.20;80.70;;;;;;5086191;28;20478;-63
2023/12/08 07:30:19;;;;;;;16.67;11.93;;;8.20;80.60;;;;;;5086943;28;20467;-63
2023/12/08 07:32:46;;;;;;;18.37;12.87;;;8.20;80.80;;;;;;5092102;28;20949;-63
2023/12/08 07:35:14;;;;;;;18.20;11.77;;;8.20;80.70;;;;;;5094331;28;20470;-64
2023/12/08 07:37:41;;;;;;;15.13;11.63;;;8.20;80.70;;;;;;5080345;28;20444;-63
2023/12/08 07:40:09;;;;;;;17.13;11.57;;;8.20;81.00;;;;;;5081754;28;20538;-62
2023/12/08 07:42:36;;;;;;;17.73;11.53;;;8.20;81.00;;;;;;5084330;28;20472;-63
2023/12/08 07:45:06;;;;;;;15.13;11.30;;;8.20;80.70;;;;;;5091446;28;20537;-63
2023/12/08 07:47:33;;;;;;;15.93;10.80;;;8.20;81.00;;;;;;5080309;28;20491;-64
2023/12/08 07:50:00;;;;;;;14.83;10.80;;;8.20;81.10;;;;;;5084815;28;20450;-63
2023/12/08 07:52:31;;;;;;;17.30;11.80;;;8.20;81.30;;;;;;5110084;28;20454;-62
2023/12/08 07:54:58;;;;;;;14.43;11.10;;;8.20;81.50;;;;;;5105523;28;20438;-68
2023/12/08 07:57:25;;;;;;;15.20;11.43;;;8.20;81.00;;;;;;5099585;28;20514;-64
2023/12/08 07:59:52;;;;;;;18.57;10.23;;;8.20;81.10;;;;;;5093307;28;20534;-63
2023/12/08 08:02:19;;;;;;;16.03;11.03;;;8.20;81.20;;;;;;5094951;28;20443;-65
2023/12/08 08:04:46;;;;;;;16.90;11.30;;;8.20;81.20;;;;;;5113032;28;20532;-63
2023/12/08 08:07:13;;;;;;;14.63;10.77;;;8.20;81.40;;;;;;5113992;28;20461;-64
2023/12/08 08:09:41;;;;;;;17.87;11.67;;;8.20;81.30;;;;;;5061043;28;20446;-63
2023/12/08 08:12:09;;;;;;;17.90;10.40;;;8.20;81.50;;;;;;5113682;28;20452;-64
2023/12/08 08:14:36;;;;;;;17.60;10.40;;;8.20;81.60;;;;;;5110719;28;20518;-63
2023/12/08 08:17:03;;;;;;;19.83;11.33;;;8.20;81.70;;;;;;5113480;28;20448;-64
2023/12/08 08:19:29;;;;;;;16.50;11.13;;;8.00;81.90;;;;;;5113108;28;21036;-64
2023/12/08 08:21:56;;;;;;;14.60;10.80;;;8.00;82.00;;;;;;5106970;28;20442;-64
2023/12/08 08:24:23;;;;;;;14.63;10.47;;;8.10;82.40;;;;;;5092600;28;20445;-64
2023/12/08 08:26:51;;;;;;;16.90;10.47;;;8.00;82.00;;;;;;5092544;28;20466;-64
2023/12/08 08:29:18;;;;;;;13.67;10.57;;;8.00;82.20;;;;;;5093654;28;21045;-64
2023/12/08 08:31:45;;;;;;;19.63;10.60;;;8.00;82.20;;;;;;5095280;28;20553;-70
2023/12/08 08:34:12;;;;;;;15.63;10.30;;;8.00;82.20;;;;;;5095221;28;20493;-64
2023/12/08 08:36:39;;;;;;;16.33;10.73;;;8.00;82.50;;;;;;5101048;28;20478;-63
2023/12/08 08:39:07;;;;;;;14.40;9.97;;;8.00;82.50;;;;;;5111569;28;20470;-63
2023/12/08 08:41:34;;;;;;;17.30;10.53;;;8.10;82.40;;;;;;5113107;28;20449;-63
2023/12/08 08:44:02;;;;;;;15.00;10.57;;;8.10;82.30;;;;;;5101786;28;20942;-64
2023/12/08 08:46:29;;;;;;;13.80;10.33;;;8.00;82.40;;;;;;5092313;28;20505;-63
2023/12/08 08:48:57;;;;;;;15.43;11.20;;;8.10;82.70;;;;;;5092356;28;20474;-64
2023/12/08 08:51:24;;;;;;;15.13;10.73;;;8.10;82.90;;;;;;5092231;28;20471;-63
2023/12/08 08:53:51;;;;;;;15.57;11.07;;;8.10;82.70;;;;;;5092198;28;20558;-64
2023/12/08 08:56:19;;;;;;;15.63;10.53;;;8.10;82.60;;;;;;5092523;28;20446;-63
2023/12/08 08:58:46;;;;;;;13.30;9.97;;;8.20;82.70;;;;;;5095011;28;20871;-63
2023/12/08 09:01:14;;;;;;;13.40;9.70;;;8.20;82.60;;;;;;5092860;28;20485;-61
2023/12/08 09:03:41;;;;;;;15.13;9.73;;;8.30;82.80;;;;;;5112301;28;20442;-63
2023/12/08 09:06:09;;;;;;;14.97;10.83;;;8.30;82.70;;;;;;5112880;28;20448;-63
2023/12/08 09:08:36;;;;;;;14.30;10.47;;;8.30;82.70;;;;;;5112050;28;20576;-62
2023/12/08 09:11:03;;;;;;;14.90;10.70;;;8.30;82.90;;;;;;5060089;28;20556;-64
2023/12/08 09:13:31;;;;;;;17.37;10.00;;;8.30;83.00;;;;;;5098233;28;20542;-63
2023/12/08 09:15:58;;;;;;;13.97;10.00;;;8.40;82.80;;;;;;5092456;28;20787;-62
2023/12/08 09:18:27;;;;;;;15.17;10.30;;;8.40;82.80;;;;;;5091815;28;20470;-64
2023/12/08 09:20:54;;;;;;;14.63;10.70;;;8.40;83.00;;;;;;5092119;28;20447;-62
2023/12/08 09:23:21;;;;;;;14.10;10.43;;;8.40;83.80;;;;;;5093292;28;20454;-62
2023/12/08 09:25:48;;;;;;;14.43;10.17;;;8.40;82.90;;;;;;5103229;28;20516;-63
2023/12/08 09:28:17;;;;;;;12.33;9.93;;;8.40;83.00;;;;;;5057453;28;20477;-64
2023/12/08 09:30:44;;;;;;;17.10;10.73;;;8.50;83.10;;;;;;5091798;28;20525;-63
2023/12/08 09:33:11;;;;;;;13.23;9.90;;;8.50;83.00;;;;;;5091776;28;20438;-62
2023/12/08 09:35:39;;;;;;;13.20;9.80;;;8.50;83.00;;;;;;5091578;28;20446;-63
2023/12/08 09:38:06;;;;;;;13.13;9.60;;;8.50;83.10;;;;;;5091136;28;20527;-64
2023/12/08 09:40:34;;;;;;;13.53;9.93;;;8.60;83.40;;;;;;5091586;28;20883;-61
2023/12/08 09:43:08;;;;;;;13.33;9.87;;;8.60;83.50;;;;;;5093219;28;20435;-63
2023/12/08 09:45:36;;;;;;;12.97;10.27;;;8.60;83.40;;;;;;5105515;28;20457;-63
2023/12/08 09:48:06;;;;;;;12.80;9.67;;;8.60;83.40;;;;;;5094295;28;20710;-63
2023/12/08 09:50:33;;;;;;;11.57;9.20;;;8.70;83.50;;;;;;5091365;28;20470;-63
2023/12/08 09:53:04;;;;;;;16.20;9.87;;;8.70;83.70;;;;;;5091047;28;20545;-64
2023/12/08 09:55:33;;;;;;;14.17;9.60;;;8.70;83.70;;;;;;5091195;28;20542;-63
2023/12/08 09:58:01;;;;;;;16.53;9.87;;;8.70;83.80;;;;;;5107662;28;20462;-63
2023/12/08 10:00:33;;;;;;;12.63;9.17;;;8.70;83.90;;;;;;5111660;28;20453;-63
2023/12/08 10:03:01;;;;;;;12.23;9.30;;;8.70;84.10;;;;;;5098690;28;20451;-64
2023/12/08 10:05:28;;;;;;;12.83;9.23;;;8.80;84.10;;;;;;5096911;28;20532;-64
2023/12/08 10:07:57;;;;;;;12.13;8.83;;;8.80;84.00;;;;;;5111748;28;20492;-63
2023/12/08 10:10:25;;;;;;;11.07;8.73;;;8.80;84.10;;;;;;5111245;28;20853;-64
2023/12/08 10:12:53;;;;;;;12.43;9.97;;;8.80;84.00;;;;;;5110312;28;20481;-64
2023/12/08 10:15:21;;;;;;;11.87;9.10;;;8.80;84.30;;;;;;5112541;28;20441;-63
2023/12/08 10:17:52;;;;;;;13.57;9.50;;;8.80;84.80;;;;;;5105029;28;20497;-64
2023/12/08 10:20:21;;;;;;;11.50;9.57;;;8.90;84.90;;;;;;5085279;28;20530;-62
2023/12/08 10:22:49;;;;;;;11.90;8.47;;;8.90;85.10;;;;;;5094700;28;20466;-62
2023/12/08 10:25:17;;;;;;;10.43;9.20;;;9.00;85.80;;;;;;5094761;28;20926;-63
2023/12/08 10:27:47;;;;;;;12.73;9.43;;;9.00;85.00;;;;;;5095140;28;20442;-63
2023/12/08 10:30:15;;;;;;;12.33;9.30;;;9.00;84.70;;;;;;5094509;28;20493;-63
2023/12/08 10:32:43;;;;;;;10.37;8.70;;;9.10;85.40;;;;;;5086425;28;20443;-62
2023/12/08 10:35:11;;;;;;;10.87;8.67;;;9.10;84.50;;;;;;5080009;28;21143;-63
2023/12/08 10:37:38;;;;;;;13.73;10.07;;;9.00;84.50;;;;;;5090102;28;20474;-63
2023/12/08 10:40:07;;;;;;;11.47;9.07;;;9.00;84.80;;;;;;5080110;28;20435;-63
2023/12/08 10:42:34;;;;;;;11.67;9.70;;;9.00;85.00;;;;;;5074621;28;20817;-63
2023/12/08 10:45:06;;;;;;;11.83;9.40;;;9.00;85.00;;;;;;5074496;28;20569;-63
2023/12/08 10:47:34;;;;;;;11.17;9.20;;;9.10;85.20;;;;;;5078625;28;20442;-63
2023/12/08 10:50:03;;;;;;;12.23;9.40;;;9.00;85.30;;;;;;5086192;28;20482;-63
2023/12/08 10:52:32;;;;;;;12.80;9.80;;;9.00;85.90;;;;;;5087556;28;20462;-63
2023/12/08 10:54:59;;;;;;;13.23;9.87;;;9.10;86.30;;;;;;5074051;28;20477;-62
2023/12/08 10:57:26;;;;;;;10.80;9.30;;;9.10;85.90;;;;;;5078419;28;20530;-64
2023/12/08 10:59:58;;;;;;;12.63;9.97;;;9.10;86.40;;;;;;5074245;28;20431;-63
2023/12/08 11:02:31;;;;;;;13.47;9.97;;;9.10;86.40;;;;;;5074719;28;20443;-63
2023/12/08 11:05:06;;;;;;;12.57;9.97;;;9.20;86.60;;;;;;5074120;28;20440;-64
2023/12/08 11:07:34;;;;;;;11.23;9.23;;;9.20;86.50;;;;;;5074306;28;20477;-63
2023/12/08 11:10:06;;;;;;;13.33;9.93;;;9.20;86.00;;;;;;5074404;28;20583;-64
2023/12/08 11:12:37;;;;;;;12.70;9.57;;;9.30;86.30;;;;;;5074093;28;20475;-62
2023/12/08 11:15:09;;;;;;;12.27;9.33;;;9.30;86.50;;;;;;5074612;28;20498;-64
2023/12/08 11:17:42;;;;;;;11.80;9.53;;;9.30;86.80;;;;;;5073899;28;20449;-62
2023/12/08 11:20:11;;;;;;;12.53;10.03;;;9.30;87.00;;;;;;5073965;28;20470;-64
2023/12/08 11:22:37;;;;;;;12.63;9.33;;;9.40;87.20;;;;;;5084162;28;20533;-64
2023/12/08 11:25:10;;;;;;;13.77;10.20;;;9.50;87.10;;;;;;5092395;28;20431;-63
2023/12/08 11:27:48;;;;;;;11.67;9.73;;;9.50;86.80;;;;;;5074204;28;20467;-61
2023/12/08 11:30:20;;;;;;;11.87;9.17;;;9.50;86.40;;;;;;5056083;28;20489;-63
2023/12/08 11:32:56;;;;;;;14.90;9.70;;;9.50;86.40;;;;;;5073601;28;20551;-63
2023/12/08 11:35:23;;;;;;;12.53;9.93;;;9.60;86.40;;;;;;5073602;28;20454;-62
2023/12/08 11:37:50;;;;;;;13.63;10.30;;;9.50;86.30;;;;;;5088453;28;20447;-64
2023/12/08 11:40:18;;;;;;;11.93;9.73;;;9.60;86.80;;;;;;5093581;28;20462;-63
2023/12/08 11:42:46;;;;;;;13.43;9.60;;;9.60;87.00;;;;;;5093587;28;20446;-63
2023/12/08 11:45:13;;;;;;;14.00;10.90;;;9.60;87.10;;;;;;5078010;28;20475;-64
2023/12/08 11:47:42;;;;;;;14.17;10.57;;;9.60;87.10;;;;;;5073459;28;20467;-62
2023/12/08 11:50:12;;;;;;;15.53;10.83;;;9.60;87.00;;;;;;5076972;28;21024;-63
2023/12/08 11:52:39;;;;;;;15.90;11.17;;;9.60;87.20;;;;;;5085787;28;20535;-64
2023/12/08 11:55:09;;;;;;;15.27;12.57;;;9.60;87.60;;;;;;5093412;28;20443;-63
2023/12/08 11:57:40;;;;;;;13.13;10.83;;;9.60;87.80;;;;;;5093236;28;21042;-63
2023/12/08 12:00:10;;;;;;;13.47;10.67;;;9.60;87.60;;;;;;5075339;28;20449;-63
2023/12/08 12:02:38;;;;;;;12.70;10.43;;;9.60;87.70;;;;;;5073942;28;20533;-64
2023/12/08 12:05:08;;;;;;;11.53;9.90;;;9.60;88.00;;;;;;5073086;28;20887;-63
2023/12/08 12:07:37;;;;;;;14.80;10.10;;;9.60;88.40;;;;;;5073030;28;20576;-64
2023/12/08 12:10:10;;;;;;;12.30;10.37;;;9.60;88.30;;;;;;5072773;28;20489;-64
2023/12/08 12:12:40;;;;;;;17.90;10.93;;;9.70;88.40;;;;;;5072840;28;20451;-63
2023/12/08 12:15:09;;;;;;;14.57;11.20;;;9.70;88.40;;;;;;5072983;28;20467;-63
2023/12/08 12:17:37;;;;;;;13.77;10.30;;;9.80;88.60;;;;;;5087739;28;20462;-64
2023/12/08 12:20:05;;;;;;;16.97;11.77;;;9.80;88.60;;;;;;5084194;28;20434;-64
2023/12/08 12:22:32;;;;;;;16.70;11.60;;;9.80;88.90;;;;;;5091970;28;20500;-63
2023/12/08 12:25:00;;;;;;;16.80;11.57;;;9.80;89.00;;;;;;5092330;28;20529;-63
2023/12/08 12:27:27;;;;;;;20.93;13.47;;;9.90;89.20;;;;;;5094753;28;20828;-64
2023/12/08 12:29:54;;;;;;;17.50;12.40;;;9.90;89.20;;;;;;5101912;28;20514;-64
2023/12/08 12:32:21;;;;;;;14.30;11.47;;;10.00;88.20;;;;;;5083676;28;20530;-63
2023/12/08 12:34:48;;;;;;;17.70;12.70;;;10.00;88.20;;;;;;5084608;28;20458;-63
2023/12/08 12:37:15;;;;;;;14.53;11.20;;;10.10;88.20;;;;;;5097989;28;20520;-64
2023/12/08 12:39:42;;;;;;;16.40;12.40;;;10.10;88.20;;;;;;5081041;28;20446;-64
2023/12/08 12:42:11;;;;;;;15.33;10.73;;;10.10;88.20;;;;;;5072128;28;20448;-63